Time;durP1;ratioP1;P1;durP2;ratioP2;P2;SDS_P1;SDS_P2;PMS_P1;PMS_P2;Temp;Humidity;BMP_temperature;BMP_pressure;BME280_temperature;BME280_humidity;BME280_pressure;Samples;Min_cycle;Max_cycle;Signal;HPM_P1;HPM_P2
2023/01/06 00:01:32;;;;;;;10.75;2.42;;;;;;;7.20;100.00;98896.50;5124701;27;20095;-84
2023/01/06 00:03:59;;;;;;;11.82;2.78;;;;;;;7.26;100.00;98929.16;5145080;27;20043;-85
2023/01/06 00:06:29;;;;;;;11.15;2.42;;;;;;;7.16;100.00;98923.63;5125362;27;20043;-83
2023/01/06 00:08:59;;;;;;;10.90;2.97;;;;;;;6.90;100.00;98883.34;5132915;27;20074;-83
2023/01/06 00:11:26;;;;;;;10.40;2.50;;;;;;;6.90;100.00;98891.16;5135505;27;20042;-82
2023/01/06 00:13:54;;;;;;;8.32;1.58;;;;;;;7.04;100.00;98879.09;5150586;27;20042;-83
2023/01/06 00:16:21;;;;;;;8.45;2.08;;;;;;;6.81;100.00;98848.25;5125075;27;20134;-83
2023/01/06 00:18:48;;;;;;;8.50;2.00;;;;;;;6.81;100.00;98856.03;5129012;27;20057;-84
2023/01/06 00:21:15;;;;;;;7.85;2.20;;;;;;;6.93;100.00;98872.78;5153164;27;20408;-84
2023/01/06 00:23:42;;;;;;;14.00;2.35;;;;;;;7.21;100.00;98899.03;5129056;27;20058;-84
2023/01/06 00:26:09;;;;;;;7.32;1.98;;;;;;;7.01;100.00;98876.66;5130055;27;20078;-83
2023/01/06 00:28:37;;;;;;;10.77;2.40;;;;;;;6.62;100.00;98825.81;5133229;27;20047;-83
2023/01/06 00:31:13;;;;;;;18.13;4.47;;;;;;;6.60;100.00;98843.22;5151042;27;20034;-84
2023/01/06 00:33:41;;;;;;;13.98;2.30;;;;;;;6.46;100.00;98801.50;5144564;27;20054;-83
2023/01/06 00:36:10;;;;;;;10.20;2.67;;;;;;;6.59;100.00;98819.94;5127591;27;20496;-83
2023/01/06 00:38:38;;;;;;;16.40;2.90;;;;;;;6.98;100.00;98874.22;5129807;27;20042;-84
2023/01/06 00:43:57;;;;;;;10.90;2.40;;;;;;;6.70;100.00;98838.41;5146567;27;20047;-84
2023/01/06 00:46:27;;;;;;;13.23;3.03;;;;;;;6.87;100.00;98834.06;5129884;27;20118;-84
2023/01/06 00:48:56;;;;;;;15.63;2.20;;;;;;;6.80;100.00;98846.56;5151538;27;20070;-83
2023/01/06 00:51:31;;;;;;;13.77;3.13;;;;;;;6.84;100.00;98848.91;5147834;27;20035;-83
2023/01/06 00:54:02;;;;;;;11.00;2.00;;;;;;;6.71;100.00;98815.81;5129688;27;20522;-84
2023/01/06 00:56:28;;;;;;;10.20;2.42;;;;;;;6.79;100.00;98848.31;5132640;27;20253;-83
2023/01/06 00:58:55;;;;;;;11.07;2.80;;;;;;;6.55;100.00;98798.44;5132593;27;20058;-83
2023/01/06 01:01:22;;;;;;;10.95;2.35;;;;;;;6.81;100.00;98843.88;5147739;27;20043;-84
2023/01/06 01:03:49;;;;;;;8.38;2.00;;;;;;;6.63;100.00;98829.25;5129427;27;20054;-84
2023/01/06 01:06:15;;;;;;;10.15;2.83;;;;;;;6.82;100.00;98840.38;5135131;27;20051;-84
2023/01/06 01:08:42;;;;;;;9.43;2.20;;;;;;;6.68;100.00;98783.03;5149950;27;20074;-84
2023/01/06 01:12:08;;;;;;;17.40;2.70;;;;;;;6.49;100.00;98785.75;5129181;27;20130;-84
2023/01/06 01:14:01;;;;;;;13.40;2.40;;;;;;;6.92;100.00;98839.88;5140097;27;20066;-84
2023/01/06 01:16:28;;;;;;;11.57;2.40;;;;;;;6.63;100.00;98830.06;5127678;27;20058;-84
2023/01/06 01:18:55;;;;;;;14.05;3.03;;;;;;;6.57;100.00;98819.13;5144058;27;20054;-84
2023/01/06 01:21:21;;;;;;;12.75;2.50;;;;;;;6.72;100.00;98826.16;5127953;27;20055;-84
2023/01/06 01:23:48;;;;;;;12.50;3.38;;;;;;;6.65;100.00;98803.97;5143551;27;20050;-84
2023/01/06 01:26:15;;;;;;;14.38;3.03;;;;;;;6.58;100.00;98793.06;5128737;27;20054;-83
2023/01/06 01:28:42;;;;;;;16.23;2.38;;;;;;;6.71;100.00;98832.28;5147832;27;20053;-83
2023/01/06 01:31:08;;;;;;;12.68;2.42;;;;;;;6.62;100.00;98793.75;5125577;27;20046;-83
2023/01/06 01:33:36;;;;;;;12.65;2.67;;;;;;;6.63;100.00;98772.84;5131765;27;20230;-84
2023/01/06 01:36:14;;;;;;;12.63;2.78;;;;;;;6.75;100.00;98792.19;5122114;27;20046;-83
2023/01/06 01:38:41;;;;;;;9.30;2.20;;;;;;;6.88;100.00;98791.53;5142510;27;20050;-84
2023/01/06 01:41:17;;;;;;;12.32;2.30;;;;;;;7.11;100.00;98821.53;5125988;27;20046;-84
2023/01/06 01:43:49;;;;;;;17.77;2.55;;;;;;;6.23;100.00;98728.16;5130901;27;20094;-84
2023/01/06 01:46:27;;;;;;;13.88;2.88;;;;;;;6.68;100.00;98736.22;5139847;27;20046;-84
2023/01/06 01:48:59;;;;;;;12.70;3.42;;;;;;;6.94;100.00;98799.00;5142179;27;20046;-84
2023/01/06 01:51:36;;;;;;;10.93;2.25;;;;;;;6.84;100.00;98788.25;5139736;27;20073;-84
2023/01/06 01:54:08;;;;;;;10.95;2.38;;;;;;;6.62;100.00;98766.00;5132097;27;20054;-83
2023/01/06 01:56:41;;;;;;;11.43;2.70;;;;;;;6.69;100.00;98795.09;5125141;27;20399;-85
2023/01/06 01:59:15;;;;;;;14.65;2.45;;;;;;;6.52;100.00;98738.78;5141130;27;20058;-84
2023/01/06 02:01:41;;;;;;;14.93;3.13;;;;;;;6.69;100.00;98795.09;5125556;27;20484;-83
2023/01/06 02:04:09;;;;;;;12.43;2.00;;;;;;;6.42;100.00;98754.03;5140947;27;20047;-83
2023/01/06 02:06:36;;;;;;;10.75;2.28;;;;;;;6.65;100.00;98773.59;5142733;27;20043;-83
2023/01/06 02:09:12;;;;;;;11.93;2.00;;;;;;;6.90;100.00;98798.31;5153116;27;20095;-83
2023/01/06 02:11:39;;;;;;;10.85;2.15;;;;;;;6.87;100.00;98805.44;5151518;27;20053;-84
2023/01/06 02:14:11;;;;;;;13.07;2.95;;;;;;;6.77;100.00;98789.50;5134354;27;20396;-83
2023/01/06 02:16:56;;;;;;;16.85;2.95;;;;;;;6.93;100.00;98805.97;5129388;27;20047;-83
2023/01/06 02:19:41;;;;;;;13.25;2.58;;;;;;;7.08;100.00;98801.69;5128879;27;20612;-83
2023/01/06 02:22:45;;;;;;;8.43;1.98;;;;;;;7.01;100.00;98797.75;5124952;28;20058;-83
2023/01/06 02:25:47;;;;;;;12.52;2.47;;;;;;;6.81;100.00;98812.66;5129503;28;20047;-83
2023/01/06 02:28:26;;;;;;;13.52;2.25;;;;;;;7.07;100.00;98807.00;5089216;28;20046;-83
2023/01/06 02:30:58;;;;;;;13.60;2.65;;;;;;;7.10;100.00;98793.81;5113612;27;20046;-83
2023/01/06 02:34:04;;;;;;;14.05;3.28;;;;;;;6.69;100.00;98750.88;5135132;27;20449;-82
2023/01/06 02:36:48;;;;;;;9.80;2.63;;;;;;;6.67;100.00;98739.72;5073188;28;20043;-84
2023/01/06 02:39:40;;;;;;;12.38;2.90;;;;;;;7.04;100.00;98803.63;5140257;27;20730;-83
2023/01/06 02:42:37;;;;;;;13.05;2.92;;;;;;;6.66;100.00;98722.47;5132907;27;20777;-84
2023/01/06 02:45:26;;;;;;;15.15;2.92;;;;;;;7.04;100.00;98782.81;5119814;28;20054;-84
2023/01/06 02:48:01;;;;;;;13.38;2.55;;;;;;;6.89;100.00;98741.16;5131891;27;20464;-83
2023/01/06 02:50:46;;;;;;;13.10;2.70;;;;;;;7.10;100.00;98758.22;5123299;27;20074;-84
2023/01/06 02:53:51;;;;;;;15.30;4.43;;;;;;;7.09;100.00;98727.09;5157030;27;20042;-83
2023/01/06 02:56:23;;;;;;;11.90;2.90;;;;;;;6.93;100.00;98708.88;5138619;27;20469;-83
2023/01/06 02:58:56;;;;;;;14.98;3.10;;;;;;;7.35;100.00;98793.31;5156750;27;20050;-83
2023/01/06 03:01:30;;;;;;;10.85;2.60;;;;;;;7.03;100.00;98721.28;5156088;27;20042;-84
2023/01/06 03:04:01;;;;;;;16.70;2.90;;;;;;;6.92;100.00;98718.41;5159495;27;20053;-84
2023/01/06 03:06:31;;;;;;;14.65;3.45;;;;;;;7.17;100.00;98714.47;5130826;27;20355;-84
2023/01/06 03:08:59;;;;;;;11.40;2.33;;;;;;;6.91;100.00;98680.34;5137701;27;20051;-84
2023/01/06 03:11:30;;;;;;;15.40;2.85;;;;;;;7.06;100.00;98693.41;5155977;27;20507;-84
2023/01/06 03:14:07;;;;;;;18.70;3.58;;;;;;;7.30;100.00;98725.06;5130237;27;20488;-84
2023/01/06 03:16:34;;;;;;;15.43;2.75;;;;;;;7.16;100.00;98760.47;5135391;27;20055;-84
2023/01/06 03:19:02;;;;;;;13.38;3.10;;;;;;;6.80;100.00;98664.50;5128736;27;20043;-85
2023/01/06 03:21:34;;;;;;;13.13;3.05;;;;;;;7.01;100.00;98693.66;5132141;27;20046;-84
2023/01/06 03:24:03;;;;;;;19.45;3.28;;;;;;;6.90;100.00;98663.03;5132443;27;20055;-84
2023/01/06 03:26:30;;;;;;;11.82;2.65;;;;;;;6.93;100.00;98649.88;5131754;27;20508;-85
2023/01/06 03:28:58;;;;;;;12.77;2.80;;;;;;;7.34;100.00;98727.38;5137099;27;20043;-84
2023/01/06 03:31:37;;;;;;;10.27;2.53;;;;;;;7.09;100.00;98732.28;5153929;27;20050;-85
2023/01/06 03:34:31;;;;;;;9.68;2.15;;;;;;;7.38;100.00;98725.44;5142045;27;20070;-85
2023/01/06 03:37:19;;;;;;;14.95;2.78;;;;;;;7.12;100.00;98722.56;5136914;27;20042;-84
2023/01/06 03:39:56;;;;;;;10.65;2.90;;;;;;;7.12;100.00;98708.69;5137122;27;20099;-84
2023/01/06 03:43:11;;;;;;;10.00;3.65;;;;;;;6.56;100.00;98617.25;5152947;27;20047;-84
2023/01/06 03:45:59;;;;;;;13.20;3.55;;;;;;;6.85;100.00;98696.28;5119024;27;20103;-84
2023/01/06 03:48:48;;;;;;;10.35;2.53;;;;;;;7.10;100.00;98674.97;5150457;27;20110;-84
2023/01/06 03:51:24;;;;;;;13.30;2.33;;;;;;;6.93;100.00;98675.88;5127250;27;20051;-84
2023/01/06 03:53:59;;;;;;;14.60;2.75;;;;;;;6.80;100.00;98683.53;5151146;27;20480;-84
2023/01/06 03:56:35;;;;;;;9.65;2.25;;;;;;;6.92;100.00;98678.56;5137741;27;20049;-83
2023/01/06 03:59:06;;;;;;;9.70;2.22;;;;;;;6.95;100.00;98674.03;5123311;27;20468;-83
2023/01/06 04:01:34;;;;;;;5.80;1.77;;;;;;;6.50;100.00;98636.63;5130383;27;20058;-84
2023/01/06 04:04:01;;;;;;;13.70;2.40;;;;;;;6.56;100.00;98627.66;5124394;27;20054;-84
2023/01/06 04:06:28;;;;;;;15.07;2.33;;;;;;;6.40;100.00;98599.06;5133857;27;20050;-83
2023/01/06 04:08:54;;;;;;;9.00;1.90;;;;;;;6.22;100.00;98567.94;5149265;27;20043;-84
2023/01/06 04:14:06;;;;;;;11.05;2.53;;;;;;;6.36;100.00;98580.19;5136093;27;20748;-83
2023/01/06 04:16:33;;;;;;;12.05;2.20;;;;;;;6.50;100.00;98599.38;5131772;27;21409;-83
2023/01/06 04:19:00;;;;;;;13.63;2.53;;;;;;;6.66;100.00;98605.44;5124380;27;20074;-84
2023/01/06 04:21:27;;;;;;;11.73;2.20;;;;;;;6.39;100.00;98592.19;5125974;27;20392;-82
2023/01/06 04:23:53;;;;;;;9.77;2.55;;;;;;;6.22;100.00;98552.34;5134268;27;20499;-84
2023/01/06 04:26:20;;;;;;;9.75;2.03;;;;;;;6.20;100.00;98554.22;5136652;27;20050;-84
2023/01/06 04:28:47;;;;;;;9.00;2.05;;;;;;;6.36;100.00;98549.00;5136506;27;20043;-83
2023/01/06 04:31:14;;;;;;;15.80;2.75;;;;;;;6.54;100.00;98554.13;5135592;27;20042;-83
2023/01/06 04:33:40;;;;;;;10.48;2.38;;;;;;;6.09;100.00;98514.97;5155365;27;20514;-84
2023/01/06 04:36:10;;;;;;;11.23;2.55;;;;;;;6.36;100.00;98542.97;5130814;27;20047;-84
2023/01/06 04:38:37;;;;;;;10.20;2.40;;;;;;;6.34;100.00;98527.47;5134447;27;20039;-84
2023/01/06 04:41:04;;;;;;;13.05;2.60;;;;;;;6.15;100.00;98519.00;5128866;27;20133;-83
2023/01/06 04:43:30;;;;;;;18.23;4.53;;;;;;;6.62;100.00;98550.16;5132815;27;20050;-84
2023/01/06 04:45:58;;;;;;;12.68;2.45;;;;;;;6.78;100.00;98573.53;5127688;27;20050;-84
2023/01/06 04:48:25;;;;;;;9.18;2.35;;;;;;;6.35;100.00;98528.28;5149956;27;20042;-84
2023/01/06 04:51:03;;;;;;;19.45;3.45;;;;;;;6.29;100.00;98532.06;5133602;27;20433;-84
2023/01/06 04:53:37;;;;;;;18.13;2.92;;;;;;;6.68;100.00;98561.97;5136250;27;20050;-83
2023/01/06 04:56:06;;;;;;;12.98;3.15;;;;;;;6.41;100.00;98528.81;5135991;27;20046;-84
2023/01/06 04:58:33;;;;;;;14.73;3.25;;;;;;;6.57;100.00;98523.56;5121126;27;20853;-85
2023/01/06 05:01:06;;;;;;;13.77;2.70;;;;;;;6.51;100.00;98513.50;5134517;27;20521;-84
2023/01/06 05:03:34;;;;;;;13.95;2.65;;;;;;;6.65;100.00;98530.94;5154756;27;20134;-83
2023/01/06 05:06:04;;;;;;;14.20;3.20;;;;;;;6.45;100.00;98517.28;5154552;27;20091;-83
2023/01/06 05:08:31;;;;;;;22.75;4.75;;;;;;;6.27;100.00;98485.38;5138156;27;20039;-83
2023/01/06 05:11:03;;;;;;;11.60;2.20;;;;;;;6.36;100.00;98467.59;5140914;27;20038;-83
2023/01/06 05:13:33;;;;;;;13.75;2.97;;;;;;;6.81;100.00;98543.91;5127546;27;20297;-83
2023/01/06 05:16:00;;;;;;;14.07;2.90;;;;;;;6.54;100.00;98499.50;5128707;27;20051;-84
2023/01/06 05:18:27;;;;;;;12.00;3.33;;;;;;;6.33;100.00;98463.41;5155476;27;20121;-83
2023/01/06 05:20:54;;;;;;;11.43;3.03;;;;;;;6.47;100.00;98517.22;5134990;27;20468;-83
2023/01/06 05:23:21;;;;;;;13.23;2.72;;;;;;;6.49;100.00;98485.94;5130181;27;20404;-83
2023/01/06 05:25:51;;;;;;;12.52;2.95;;;;;;;6.51;100.00;98489.28;5144415;27;20053;-84
2023/01/06 05:28:18;;;;;;;13.55;4.18;;;;;;;6.28;100.00;98462.81;5129589;27;20476;-83
2023/01/06 05:30:46;;;;;;;21.58;4.20;;;;;;;6.72;100.00;98488.06;5139460;27;20480;-83
2023/01/06 05:33:13;;;;;;;14.95;3.22;;;;;;;6.44;100.00;98432.44;5115454;27;20047;-83
2023/01/06 05:35:39;;;;;;;12.30;3.25;;;;;;;6.27;100.00;98422.19;5142203;27;20049;-84
2023/01/06 05:38:06;;;;;;;25.25;4.03;;;;;;;6.32;100.00;98445.28;5135561;27;20053;-83
2023/01/06 05:40:33;;;;;;;21.00;4.53;;;;;;;6.23;100.00;98418.91;5137798;27;20419;-84
2023/01/06 05:43:00;;;;;;;18.58;3.40;;;;;;;6.58;100.00;98475.84;5153611;27;20479;-83
2023/01/06 05:45:27;;;;;;;18.75;3.45;;;;;;;6.33;100.00;98439.19;5153695;27;20054;-83
2023/01/06 05:47:54;;;;;;;22.33;3.85;;;;;;;6.44;100.00;98471.41;5118146;27;20043;-83
2023/01/06 05:50:20;;;;;;;10.75;2.50;;;;;;;6.34;100.00;98440.84;5129337;27;20787;-83
2023/01/06 05:52:47;;;;;;;11.75;3.47;;;;;;;6.94;100.00;98508.47;5134596;27;20050;-83
2023/01/06 05:55:14;;;;;;;13.50;2.67;;;;;;;6.82;100.00;98503.97;5135763;27;20054;-84
2023/01/06 05:57:40;;;;;;;20.63;3.17;;;;;;;6.73;100.00;98473.28;5135488;27;20043;-84
2023/01/06 06:00:08;;;;;;;21.35;3.47;;;;;;;6.84;100.00;98476.09;5154014;27;20708;-83
2023/01/06 06:02:35;;;;;;;13.05;3.72;;;;;;;6.64;100.00;98479.88;5146675;27;20051;-83
2023/01/06 06:05:01;;;;;;;11.80;2.97;;;;;;;6.79;100.00;98465.13;5123074;27;20051;-83
2023/01/06 06:07:28;;;;;;;19.88;4.43;;;;;;;6.58;100.00;98480.22;5132461;27;20054;-84
2023/01/06 06:09:55;;;;;;;15.40;3.53;;;;;;;6.62;100.00;98460.88;5142975;27;20047;-83
2023/01/06 06:12:21;;;;;;;18.60;3.22;;;;;;;6.69;100.00;98443.19;5125946;27;20106;-83
2023/01/06 06:14:48;;;;;;;16.60;3.55;;;;;;;6.94;100.00;98465.97;5134089;27;20047;-83
2023/01/06 06:17:15;;;;;;;15.35;3.22;;;;;;;7.00;100.00;98471.66;5144336;27;20059;-83
2023/01/06 06:19:41;;;;;;;17.35;3.33;;;;;;;6.95;100.00;98449.47;5134152;27;20047;-83
2023/01/06 06:22:08;;;;;;;18.20;3.17;;;;;;;7.08;100.00;98472.97;5134256;27;20425;-84
2023/01/06 06:24:36;;;;;;;11.90;2.17;;;;;;;6.91;100.00;98460.97;5137546;27;20057;-84
2023/01/06 06:27:03;;;;;;;11.75;2.72;;;;;;;6.81;100.00;98453.69;5137428;27;20054;-84
2023/01/06 06:29:30;;;;;;;11.35;3.08;;;;;;;7.05;100.00;98489.63;5156940;27;20050;-83
2023/01/06 06:31:56;;;;;;;12.35;2.83;;;;;;;6.93;100.00;98457.34;5134991;27;20058;-85
2023/01/06 06:34:23;;;;;;;10.63;2.33;;;;;;;6.95;100.00;98473.69;5127070;27;20047;-85
2023/01/06 06:36:50;;;;;;;11.02;2.35;;;;;;;7.18;100.00;98489.72;5133278;27;20043;-86
2023/01/06 06:39:17;;;;;;;9.20;2.13;;;;;;;7.28;100.00;98488.25;5118875;27;20378;-85
2023/01/06 06:41:44;;;;;;;11.77;2.72;;;;;;;7.22;100.00;98486.00;5131978;27;20050;-85
2023/01/06 06:44:11;;;;;;;7.25;2.08;;;;;;;6.96;100.00;98474.56;5138959;27;20054;-85
2023/01/06 06:46:37;;;;;;;8.88;2.08;;;;;;;6.95;100.00;98455.50;5139459;27;20046;-85
2023/01/06 06:49:04;;;;;;;11.85;2.03;;;;;;;6.93;100.00;98462.56;5138488;27;20035;-85
2023/01/06 06:51:31;;;;;;;9.68;2.30;;;;;;;6.73;100.00;98444.66;5137912;27;20050;-84
2023/01/06 06:53:58;;;;;;;9.65;1.80;;;;;;;6.67;100.00;98438.06;5157548;27;20046;-83
2023/01/06 06:56:24;;;;;;;9.65;1.95;;;;;;;6.98;100.00;98496.13;5136073;27;21491;-83
2023/01/06 06:58:51;;;;;;;10.05;2.00;;;;;;;6.68;100.00;98478.75;5154513;27;20042;-83
2023/01/06 07:01:21;;;;;;;10.10;3.20;;;;;;;6.57;100.00;98471.56;5133760;27;20043;-84
2023/01/06 07:03:51;;;;;;;9.60;2.55;;;;;;;6.62;100.00;98453.09;5120462;27;20042;-83
2023/01/06 07:06:20;;;;;;;7.13;1.80;;;;;;;6.45;100.00;98418.50;5135486;27;20059;-84
2023/01/06 07:08:53;;;;;;;8.18;2.00;;;;;;;6.64;100.00;98451.28;5133469;27;20083;-86
2023/01/06 07:11:22;;;;;;;8.85;2.08;;;;;;;6.57;100.00;98470.72;5124323;27;20126;-84
2023/01/06 07:13:49;;;;;;;12.13;2.10;;;;;;;6.87;100.00;98488.09;5132080;27;20054;-84
2023/01/06 07:16:16;;;;;;;10.23;1.88;;;;;;;6.82;100.00;98490.97;5142799;27;20082;-85
2023/01/06 07:18:43;;;;;;;16.23;2.22;;;;;;;6.85;100.00;98503.78;5145184;27;20051;-85
2023/01/06 07:21:13;;;;;;;4.75;1.50;;;;;;;7.19;100.00;98535.66;5133172;27;20046;-82
2023/01/06 07:23:39;;;;;;;13.63;3.22;;;;;;;7.17;100.00;98553.09;5129943;27;20051;-83
2023/01/06 07:26:06;;;;;;;7.88;2.25;;;;;;;6.55;100.00;98467.38;5147868;27;20515;-83
2023/01/06 07:28:33;;;;;;;8.68;1.92;;;;;;;6.86;100.00;98489.84;5152554;27;20053;-83
2023/01/06 07:31:00;;;;;;;9.20;1.77;;;;;;;6.65;100.00;98471.94;5150165;27;20058;-84
2023/01/06 07:33:28;;;;;;;8.77;1.60;;;;;;;6.69;100.00;98472.63;5131975;27;20392;-84
2023/01/06 07:35:56;;;;;;;6.80;1.70;;;;;;;6.62;100.00;98477.34;5128362;27;20043;-84
2023/01/06 07:38:26;;;;;;;7.93;1.90;;;;;;;6.61;100.00;98486.06;5147579;27;20472;-84
2023/01/06 07:40:58;;;;;;;6.60;1.60;;;;;;;6.88;100.00;98529.63;5130583;27;20509;-84
2023/01/06 07:43:24;;;;;;;6.03;2.05;;;;;;;6.84;100.00;98517.72;5131190;27;20047;-83
2023/01/06 07:45:51;;;;;;;8.10;1.40;;;;;;;7.23;100.00;98584.81;5152540;27;20043;-84
2023/01/06 07:48:18;;;;;;;4.63;1.48;;;;;;;7.00;100.00;98543.69;5146829;27;20118;-84
2023/01/06 07:50:44;;;;;;;6.22;1.50;;;;;;;6.51;100.00;98487.50;5130582;27;20042;-84
2023/01/06 07:53:12;;;;;;;8.00;2.25;;;;;;;6.81;100.00;98523.94;5131835;27;20147;-84
2023/01/06 07:55:38;;;;;;;4.68;1.38;;;;;;;6.75;100.00;98533.88;5134022;27;20415;-85
2023/01/06 07:58:07;;;;;;;7.85;1.50;;;;;;;6.77;100.00;98538.03;5132405;27;20050;-85
2023/01/06 08:00:37;;;;;;;7.97;1.73;;;;;;;6.82;100.00;98530.81;5127415;27;20047;-84
2023/01/06 08:03:06;;;;;;;7.93;1.77;;;;;;;6.79;100.00;98537.97;5136758;27;20057;-84
2023/01/06 08:05:38;;;;;;;6.38;2.00;;;;;;;6.83;100.00;98534.25;5131174;27;20087;-84
2023/01/06 08:08:04;;;;;;;7.50;1.98;;;;;;;6.97;100.00;98552.50;5130842;27;20043;-84
2023/01/06 08:10:31;;;;;;;5.20;1.38;;;;;;;7.29;100.00;98581.03;5136137;27;20043;-84
2023/01/06 08:12:58;;;;;;;6.85;1.58;;;;;;;6.97;100.00;98546.47;5151317;27;20848;-84
2023/01/06 08:15:25;;;;;;;4.88;1.48;;;;;;;7.60;100.00;98628.72;5128479;27;20586;-84
2023/01/06 08:17:54;;;;;;;5.10;1.40;;;;;;;7.02;100.00;98547.03;5128033;27;20389;-84
2023/01/06 08:20:29;;;;;;;6.03;1.25;;;;;;;6.94;100.00;98542.28;5131500;27;20054;-85
2023/01/06 08:22:56;;;;;;;4.60;1.17;;;;;;;7.26;100.00;98594.25;5149632;27;20046;-84
2023/01/06 08:25:23;;;;;;;5.45;1.20;;;;;;;7.30;100.00;98590.50;5131069;27;20384;-85
2023/01/06 08:27:50;;;;;;;2.38;1.10;;;;;;;7.50;100.00;98628.41;5123806;27;20055;-84
2023/01/06 08:30:20;;;;;;;3.67;1.30;;;;;;;7.22;100.00;98605.72;5134603;27;20054;-84
2023/01/06 08:32:47;;;;;;;7.93;2.33;;;;;;;7.49;100.00;98633.69;5136270;27;20461;-84
2023/01/06 08:35:15;;;;;;;7.07;1.30;;;;;;;7.29;100.00;98617.47;5136188;27;20115;-84
2023/01/06 08:37:42;;;;;;;7.32;1.30;;;;;;;7.88;100.00;98705.22;5135160;27;20047;-83
2023/01/06 08:40:09;;;;;;;4.00;1.08;;;;;;;7.72;100.00;98681.81;5155091;27;20042;-83
2023/01/06 08:42:36;;;;;;;4.47;1.60;;;;;;;7.86;100.00;98678.41;5135137;27;20073;-83
2023/01/06 08:45:03;;;;;;;3.88;1.38;;;;;;;7.89;100.00;98697.31;5133207;27;20046;-83
2023/01/06 08:47:29;;;;;;;3.55;1.30;;;;;;;7.98;100.00;98724.59;5128990;27;20580;-83
2023/01/06 08:50:00;;;;;;;4.28;1.27;;;;;;;7.96;100.00;98729.06;5127038;27;20047;-84
2023/01/06 08:52:26;;;;;;;4.15;1.10;;;;;;;7.45;100.00;98650.44;5131435;27;20046;-84
2023/01/06 08:54:53;;;;;;;5.60;1.27;;;;;;;7.74;100.00;98708.66;5125948;27;20062;-84
2023/01/06 08:57:23;;;;;;;5.93;1.30;;;;;;;8.01;100.00;98726.19;5131552;27;20053;-85
2023/01/06 08:59:50;;;;;;;7.03;1.30;;;;;;;7.92;100.00;98694.53;5124544;27;20047;-84
2023/01/06 09:02:17;;;;;;;8.23;1.30;;;;;;;7.81;100.00;98707.38;5150615;27;20540;-84
2023/01/06 09:04:43;;;;;;;9.35;1.50;;;;;;;8.31;100.00;98797.38;5130390;27;20050;-84
2023/01/06 09:07:13;;;;;;;5.55;1.35;;;;;;;8.09;100.00;98776.09;5149319;27;20103;-84
2023/01/06 09:09:40;;;;;;;3.60;1.20;;;;;;;8.10;100.00;98765.56;5134105;27;20050;-84
2023/01/06 09:12:07;;;;;;;3.83;1.15;;;;;;;7.53;100.00;98716.75;5145373;27;20047;-85
2023/01/06 09:14:34;;;;;;;6.78;1.75;;;;;;;7.89;100.00;98761.63;5125928;27;20051;-85
2023/01/06 09:17:04;;;;;;;5.75;1.20;;;;;;;7.71;100.00;98733.09;5124327;27;20046;-84
2023/01/06 09:19:30;;;;;;;3.63;1.35;;;;;;;8.10;100.00;98788.19;5126175;27;20046;-84
2023/01/06 09:21:57;;;;;;;7.80;1.30;;;;;;;8.19;100.00;98772.00;5131207;27;20058;-84
2023/01/06 09:24:26;;;;;;;2.85;1.02;;;;;;;8.22;100.00;98794.47;5140078;27;20392;-84
2023/01/06 09:26:53;;;;;;;3.80;1.20;;;;;;;8.27;100.00;98832.38;5154418;27;20050;-85
2023/01/06 09:29:22;;;;;;;3.75;1.10;;;;;;;7.60;100.00;98738.91;5136170;27;20039;-85
2023/01/06 09:31:49;;;;;;;5.28;1.30;;;;;;;8.36;100.00;98837.03;5147849;27;20129;-84
2023/01/06 09:34:19;;;;;;;4.75;1.17;;;;;;;8.02;100.00;98798.22;5128678;27;20105;-84
2023/01/06 09:36:45;;;;;;;2.88;1.00;;;;;;;8.13;100.00;98801.06;5135082;27;20051;-84
2023/01/06 09:39:13;;;;;;;4.85;1.13;;;;;;;8.30;100.00;98853.03;5134075;27;20034;-84
2023/01/06 09:41:59;;;;;;;3.38;1.20;;;;;;;8.47;100.00;98865.13;5133905;27;20046;-84
2023/01/06 09:44:38;;;;;;;6.88;1.40;;;;;;;8.71;100.00;98914.16;5135460;27;20540;-85
2023/01/06 09:47:11;;;;;;;6.47;1.10;;;;;;;8.56;100.00;98897.66;5135581;27;20118;-84
2023/01/06 09:50:00;;;;;;;4.80;1.23;;;;;;;8.48;100.00;98881.63;5135340;27;20074;-85
2023/01/06 09:52:37;;;;;;;8.10;2.05;;;;;;;8.81;100.00;98936.19;5152122;27;20047;-85
2023/01/06 09:55:13;;;;;;;4.25;1.20;;;;;;;8.63;100.00;98930.28;5135010;27;20548;-84
2023/01/06 09:57:45;;;;;;;5.00;1.23;;;;;;;8.23;100.00;98880.41;5134161;27;20056;-86
2023/01/06 10:00:31;;;;;;;4.82;1.30;;;;;;;8.66;100.00;98945.78;5121420;27;20059;-85
2023/01/06 10:02:58;;;;;;;5.13;1.38;;;;;;;8.38;100.00;98878.69;5135425;27;20054;-85
2023/01/06 10:05:54;;;;;;;4.00;1.10;;;;;;;8.80;100.00;98957.16;5153662;27;20057;-85
2023/01/06 10:08:46;;;;;;;7.03;1.23;;;;;;;8.38;100.00;98915.19;5129299;27;20050;-85
2023/01/06 10:11:15;;;;;;;3.60;1.20;;;;;;;8.54;100.00;98928.22;5133638;27;20043;-85
2023/01/06 10:13:55;;;;;;;3.35;1.00;;;;;;;9.02;100.00;98968.03;5124946;27;20058;-84
2023/01/06 10:16:28;;;;;;;5.72;1.00;;;;;;;8.99;100.00;98981.25;5132775;27;20047;-84
2023/01/06 10:18:58;;;;;;;;;;;;;;;9.02;100.00;98982.84;5135497;27;20064;-84
2023/01/06 10:21:44;;;;;;;3.78;1.10;;;;;;;8.45;100.00;98911.34;5151119;27;19934;-84
2023/01/06 10:24:20;;;;;;;7.75;2.00;;;;;;;9.07;100.00;98999.09;5132775;27;20550;-84
2023/01/06 10:27:14;;;;;;;7.20;2.10;;;;;;;8.54;100.00;98916.00;5133831;27;20413;-84
2023/01/06 10:29:42;;;;;;;9.13;2.72;;;;;;;8.63;100.00;98932.06;5128349;27;20085;-84
2023/01/06 10:32:15;;;;;;;12.38;3.42;;;;;;;8.95;100.00;98995.41;5127969;27;20496;-84
2023/01/06 10:34:48;;;;;;;9.73;2.50;;;;;;;8.78;100.00;98974.69;5129253;27;20050;-84
2023/01/06 10:37:39;;;;;;;4.47;1.48;;;;;;;9.15;100.00;99024.72;5131329;27;20484;-84
2023/01/06 10:40:36;;;;;;;4.90;1.23;;;;;;;9.04;100.00;99017.53;5126156;27;20051;-84
2023/01/06 10:43:08;;;;;;;5.30;1.60;;;;;;;8.52;100.00;98925.69;5127070;27;20055;-83
2023/01/06 10:45:46;;;;;;;6.88;1.75;;;;;;;8.92;100.00;98959.91;5129872;27;20392;-84
2023/01/06 10:48:24;;;;;;;9.23;1.92;;;;;;;8.87;100.00;98982.81;5128948;27;20560;-84
2023/01/06 10:50:51;;;;;;;6.10;1.50;;;;;;;9.18;100.00;99022.78;5137077;27;20103;-84
2023/01/06 10:53:18;;;;;;;5.85;2.33;;;;;;;9.26;100.00;99057.13;5128896;27;20050;-85
2023/01/06 10:56:00;;;;;;;8.20;1.63;;;;;;;9.24;100.00;99018.97;5147398;27;20061;-84
2023/01/06 10:58:42;;;;;;;7.65;1.52;;;;;;;8.93;100.00;98987.66;5124735;27;20046;-84
2023/01/06 11:01:22;;;;;;;4.63;1.70;;;;;;;9.36;100.00;99052.19;5127820;27;20050;-84
2023/01/06 11:04:16;;;;;;;4.05;1.15;;;;;;;9.47;100.00;99056.75;5144274;27;20046;-84
2023/01/06 11:06:49;;;;;;;6.18;1.30;;;;;;;9.23;100.00;99035.56;5139922;27;20055;-85
2023/01/06 11:09:25;;;;;;;4.45;1.40;;;;;;;9.49;100.00;99062.72;5121730;27;20046;-84
2023/01/06 11:11:53;;;;;;;8.50;1.98;;;;;;;9.26;100.00;99038.84;5120953;27;20145;-84
2023/01/06 11:14:24;;;;;;;10.82;1.90;;;;;;;9.34;100.00;99068.88;5133851;27;20502;-85
2023/01/06 11:16:57;;;;;;;9.75;1.77;;;;;;;9.20;100.00;99040.97;5130800;27;20480;-82
2023/01/06 11:19:33;;;;;;;10.90;1.90;;;;;;;9.23;100.00;99069.53;5133160;27;20544;-82
2023/01/06 11:22:00;;;;;;;7.10;1.52;;;;;;;9.13;100.00;99067.44;5125211;27;20043;-82
2023/01/06 11:24:28;;;;;;;8.50;2.60;;;;;;;9.19;100.00;99068.00;5133035;27;20038;-86
2023/01/06 11:27:14;;;;;;;10.30;1.70;;;;;;;8.96;100.00;99040.63;5139422;27;20552;-83
2023/01/06 11:29:41;;;;;;;5.25;1.83;;;;;;;9.37;100.00;99116.56;5149180;27;20047;-83
2023/01/06 11:32:25;;;;;;;5.10;1.52;;;;;;;9.53;100.00;99110.44;5156929;27;20077;-84
2023/01/06 11:35:04;;;;;;;3.08;1.13;;;;;;;9.09;100.00;99054.66;5132884;27;20059;-84
2023/01/06 11:37:36;;;;;;;4.57;1.60;;;;;;;9.59;100.00;99125.75;5118257;27;20051;-83
2023/01/06 11:40:21;;;;;;;8.10;1.92;;;;;;;9.58;100.00;99127.53;5126732;27;20618;-84
2023/01/06 11:42:51;;;;;;;2.67;1.13;;;;;;;9.01;100.00;99062.09;5122890;27;20140;-82
2023/01/06 11:45:37;;;;;;;5.20;1.20;;;;;;;9.53;100.00;99144.41;5121275;27;20042;-82
2023/01/06 11:48:16;;;;;;;4.95;1.20;;;;;;;9.45;100.00;99129.16;5137705;27;20050;-83
2023/01/06 11:51:10;;;;;;;5.85;1.25;;;;;;;9.65;100.00;99117.53;5124316;27;20046;-83
2023/01/06 11:53:38;;;;;;;7.03;1.48;;;;;;;9.44;100.00;99104.00;5139280;27;20047;-82
2023/01/06 11:56:17;;;;;;;6.25;1.50;;;;;;;9.45;100.00;99114.31;5124294;27;20059;-82